Terminal Aerodrome Forecast
Issued by NWS

Home | Current Version | Previous Version | Text Only | Print | Product List | Glossary On
Versions: 1 2 3 4 5 6 7 8 9 10 11 12 13 14
000
FTUS44 KOUN 301134
TAFHBR
TAF
KHBR 301134Z 3012/3112 30011KT P6SM FEW035
     FM301500 31015G21KT P6SM FEW250
     FM302100 32010KT P6SM SKC
     FM310100 09008KT P6SM SKC=

USA.gov is the U.S. government's official web portal to all federal, state and local government web resources and services.